sensor_id;sensor_type;location;lat;lon;timestamp;temperature;humidity
18268;DHT22;9260;49.998;19.880;2023-07-31T00:03:16;12.00;1.00
18268;DHT22;9260;49.998;19.880;2023-07-31T00:13:21;12.10;1.00
18268;DHT22;9260;49.998;19.880;2023-07-31T00:23:24;12.00;1.00
18268;DHT22;9260;49.998;19.880;2023-07-31T00:33:29;12.10;1.00
18268;DHT22;9260;49.998;19.880;2023-07-31T00:43:33;11.70;1.00
18268;DHT22;9260;49.998;19.880;2023-07-31T00:53:38;11.90;1.00
18268;DHT22;9260;49.998;19.880;2023-07-31T01:03:45;12.10;1.00
18268;DHT22;9260;49.998;19.880;2023-07-31T01:13:49;12.60;1.00
18268;DHT22;9260;49.998;19.880;2023-07-31T01:24:01;12.90;99.90
18268;DHT22;9260;49.998;19.880;2023-07-31T01:34:18;13.30;99.90
18268;DHT22;9260;49.998;19.880;2023-07-31T01:44:22;13.60;1.00
18268;DHT22;9260;49.998;19.880;2023-07-31T01:54:27;13.90;99.90
18268;DHT22;9260;49.998;19.880;2023-07-31T02:04:31;14.00;1.00
18268;DHT22;9260;49.998;19.880;2023-07-31T02:14:35;14.10;99.90
18268;DHT22;9260;49.998;19.880;2023-07-31T02:24:38;14.20;99.90
18268;DHT22;9260;49.998;19.880;2023-07-31T02:34:43;14.30;99.90
18268;DHT22;9260;49.998;19.880;2023-07-31T02:44:46;14.50;99.90
18268;DHT22;9260;49.998;19.880;2023-07-31T02:54:51;14.80;99.90
18268;DHT22;9260;49.998;19.880;2023-07-31T03:04:54;14.80;99.90
18268;DHT22;9260;49.998;19.880;2023-07-31T03:15:03;14.90;99.90
18268;DHT22;9260;49.998;19.880;2023-07-31T03:25:07;14.80;99.90
18268;DHT22;9260;49.998;19.880;2023-07-31T03:35:13;14.80;99.90
18268;DHT22;9260;49.998;19.880;2023-07-31T03:45:17;14.80;99.90
18268;DHT22;9260;49.998;19.880;2023-07-31T03:55:22;14.80;99.90
18268;DHT22;9260;49.998;19.880;2023-07-31T04:05:25;15.10;99.90
18268;DHT22;9260;49.998;19.880;2023-07-31T04:15:30;15.30;99.90
18268;DHT22;9260;49.998;19.880;2023-07-31T04:25:33;15.60;99.90
18268;DHT22;9260;49.998;19.880;2023-07-31T04:35:38;15.90;99.90
18268;DHT22;9260;49.998;19.880;2023-07-31T04:45:42;16.10;99.90
18268;DHT22;9260;49.998;19.880;2023-07-31T04:55:49;16.60;99.90
18268;DHT22;9260;49.998;19.880;2023-07-31T05:05:52;17.10;99.90
18268;DHT22;9260;49.998;19.880;2023-07-31T05:15:56;16.80;99.90
18268;DHT22;9260;49.998;19.880;2023-07-31T05:26:04;16.70;99.90
18268;DHT22;9260;49.998;19.880;2023-07-31T05:36:08;16.40;99.90
18268;DHT22;9260;49.998;19.880;2023-07-31T05:46:12;16.70;99.90
18268;DHT22;9260;49.998;19.880;2023-07-31T05:56:18;16.90;99.90
18268;DHT22;9260;49.998;19.880;2023-07-31T06:06:21;16.90;99.90
18268;DHT22;9260;49.998;19.880;2023-07-31T06:16:27;16.70;99.90
18268;DHT22;9260;49.998;19.880;2023-07-31T06:26:30;16.50;99.90
18268;DHT22;9260;49.998;19.880;2023-07-31T06:36:35;16.70;99.90
18268;DHT22;9260;49.998;19.880;2023-07-31T06:46:39;17.90;99.90
18268;DHT22;9260;49.998;19.880;2023-07-31T06:56:44;18.30;99.90
18268;DHT22;9260;49.998;19.880;2023-07-31T07:06:47;18.90;99.90
18268;DHT22;9260;49.998;19.880;2023-07-31T07:16:52;20.70;99.90
18268;DHT22;9260;49.998;19.880;2023-07-31T07:26:55;21.70;99.90
18268;DHT22;9260;49.998;19.880;2023-07-31T07:37:00;21.50;99.90
18268;DHT22;9260;49.998;19.880;2023-07-31T07:47:03;21.00;99.90
18268;DHT22;9260;49.998;19.880;2023-07-31T07:57:09;20.50;99.90
18268;DHT22;9260;49.998;19.880;2023-07-31T08:07:12;20.50;99.90
18268;DHT22;9260;49.998;19.880;2023-07-31T08:17:17;20.60;99.90
18268;DHT22;9260;49.998;19.880;2023-07-31T08:27:20;20.60;99.90
18268;DHT22;9260;49.998;19.880;2023-07-31T08:37:25;21.40;99.90
18268;DHT22;9260;49.998;19.880;2023-07-31T08:47:28;20.80;99.90
18268;DHT22;9260;49.998;19.880;2023-07-31T08:57:33;21.00;99.90
18268;DHT22;9260;49.998;19.880;2023-07-31T09:07:37;21.60;99.90
18268;DHT22;9260;49.998;19.880;2023-07-31T09:17:42;22.50;99.90
18268;DHT22;9260;49.998;19.880;2023-07-31T09:27:46;25.40;99.90
18268;DHT22;9260;49.998;19.880;2023-07-31T09:37:52;37.30;99.90
18268;DHT22;9260;49.998;19.880;2023-07-31T09:47:56;45.70;99.90
18268;DHT22;9260;49.998;19.880;2023-07-31T09:58:02;50.30;99.90
18268;DHT22;9260;49.998;19.880;2023-07-31T10:08:07;52.80;99.90
18268;DHT22;9260;49.998;19.880;2023-07-31T10:18:14;54.90;99.90
18268;DHT22;9260;49.998;19.880;2023-07-31T10:28:17;54.60;99.90
18268;DHT22;9260;49.998;19.880;2023-07-31T10:38:23;54.50;99.90
18268;DHT22;9260;49.998;19.880;2023-07-31T10:48:26;55.80;1.00
18268;DHT22;9260;49.998;19.880;2023-07-31T10:58:37;54.10;99.90
18268;DHT22;9260;49.998;19.880;2023-07-31T11:08:41;52.60;99.90
18268;DHT22;9260;49.998;19.880;2023-07-31T11:18:47;52.40;99.90
18268;DHT22;9260;49.998;19.880;2023-07-31T11:28:51;53.40;99.90
18268;DHT22;9260;49.998;19.880;2023-07-31T11:39:04;52.90;99.90
18268;DHT22;9260;49.998;19.880;2023-07-31T11:49:07;49.50;99.90
18268;DHT22;9260;49.998;19.880;2023-07-31T11:59:12;52.40;99.90
18268;DHT22;9260;49.998;19.880;2023-07-31T12:09:16;43.10;99.90
18268;DHT22;9260;49.998;19.880;2023-07-31T12:19:20;47.60;99.90
18268;DHT22;9260;49.998;19.880;2023-07-31T12:29:33;49.60;99.90
18268;DHT22;9260;49.998;19.880;2023-07-31T12:39:41;48.90;99.90
18268;DHT22;9260;49.998;19.880;2023-07-31T12:49:45;47.60;99.90
18268;DHT22;9260;49.998;19.880;2023-07-31T12:59:49;45.50;99.90
18268;DHT22;9260;49.998;19.880;2023-07-31T13:09:53;39.60;99.90
18268;DHT22;9260;49.998;19.880;2023-07-31T13:19:57;37.80;99.90
18268;DHT22;9260;49.998;19.880;2023-07-31T13:30:02;31.80;99.90
18268;DHT22;9260;49.998;19.880;2023-07-31T13:40:08;28.40;99.90
18268;DHT22;9260;49.998;19.880;2023-07-31T13:50:11;27.00;99.90
18268;DHT22;9260;49.998;19.880;2023-07-31T14:00:17;26.60;99.90
18268;DHT22;9260;49.998;19.880;2023-07-31T14:10:20;26.70;99.90
18268;DHT22;9260;49.998;19.880;2023-07-31T14:20:25;26.30;99.90
18268;DHT22;9260;49.998;19.880;2023-07-31T14:30:28;25.50;99.90
18268;DHT22;9260;49.998;19.880;2023-07-31T14:40:33;25.20;99.90
18268;DHT22;9260;49.998;19.880;2023-07-31T14:50:36;25.00;99.90
18268;DHT22;9260;49.998;19.880;2023-07-31T15:00:41;24.60;99.90
18268;DHT22;9260;49.998;19.880;2023-07-31T15:10:44;24.90;99.90
18268;DHT22;9260;49.998;19.880;2023-07-31T15:20:49;24.80;99.90
18268;DHT22;9260;49.998;19.880;2023-07-31T15:30:52;24.80;99.90
18268;DHT22;9260;49.998;19.880;2023-07-31T15:40:57;24.20;99.90
18268;DHT22;9260;49.998;19.880;2023-07-31T15:51:00;23.80;99.90
18268;DHT22;9260;49.998;19.880;2023-07-31T16:01:06;22.90;99.90
18268;DHT22;9260;49.998;19.880;2023-07-31T16:11:09;22.60;99.90
18268;DHT22;9260;49.998;19.880;2023-07-31T16:21:14;22.30;99.90
18268;DHT22;9260;49.998;19.880;2023-07-31T16:31:18;22.20;99.90
18268;DHT22;9260;49.998;19.880;2023-07-31T16:41:22;22.00;99.90
18268;DHT22;9260;49.998;19.880;2023-07-31T16:51:26;21.70;99.90
18268;DHT22;9260;49.998;19.880;2023-07-31T17:01:31;21.30;99.90
18268;DHT22;9260;49.998;19.880;2023-07-31T17:11:34;21.10;99.90
18268;DHT22;9260;49.998;19.880;2023-07-31T17:21:40;21.10;99.90
18268;DHT22;9260;49.998;19.880;2023-07-31T17:31:44;20.90;99.90
18268;DHT22;9260;49.998;19.880;2023-07-31T17:41:48;20.80;99.90
18268;DHT22;9260;49.998;19.880;2023-07-31T17:51:52;20.50;99.90
18268;DHT22;9260;49.998;19.880;2023-07-31T18:01:56;20.20;99.90
18268;DHT22;9260;49.998;19.880;2023-07-31T18:11:59;19.80;99.90
18268;DHT22;9260;49.998;19.880;2023-07-31T18:22:04;19.00;99.90
18268;DHT22;9260;49.998;19.880;2023-07-31T18:32:08;17.70;99.90
18268;DHT22;9260;49.998;19.880;2023-07-31T18:42:13;17.00;99.90
18268;DHT22;9260;49.998;19.880;2023-07-31T18:52:16;16.40;99.90
18268;DHT22;9260;49.998;19.880;2023-07-31T19:02:21;15.80;99.90
18268;DHT22;9260;49.998;19.880;2023-07-31T19:12:24;15.40;99.90
18268;DHT22;9260;49.998;19.880;2023-07-31T19:22:29;14.90;99.90
18268;DHT22;9260;49.998;19.880;2023-07-31T19:32:32;14.60;99.90
18268;DHT22;9260;49.998;19.880;2023-07-31T19:42:37;14.30;99.90
18268;DHT22;9260;49.998;19.880;2023-07-31T19:52:40;16.70;99.90
18268;DHT22;9260;49.998;19.880;2023-07-31T20:02:45;13.80;99.90
18268;DHT22;9260;49.998;19.880;2023-07-31T20:12:48;13.60;99.90
18268;DHT22;9260;49.998;19.880;2023-07-31T20:22:53;13.40;99.90
18268;DHT22;9260;49.998;19.880;2023-07-31T20:32:56;13.20;99.90
18268;DHT22;9260;49.998;19.880;2023-07-31T20:43:01;13.30;99.90
18268;DHT22;9260;49.998;19.880;2023-07-31T20:53:04;13.30;99.90
18268;DHT22;9260;49.998;19.880;2023-07-31T21:03:09;13.10;99.90
18268;DHT22;9260;49.998;19.880;2023-07-31T21:13:13;13.10;99.90
18268;DHT22;9260;49.998;19.880;2023-07-31T21:23:18;13.20;99.90
18268;DHT22;9260;49.998;19.880;2023-07-31T21:33:22;12.80;99.90
18268;DHT22;9260;49.998;19.880;2023-07-31T21:43:27;12.60;99.90
18268;DHT22;9260;49.998;19.880;2023-07-31T21:53:30;12.30;99.90
18268;DHT22;9260;49.998;19.880;2023-07-31T22:03:35;12.20;99.90
18268;DHT22;9260;49.998;19.880;2023-07-31T22:13:38;12.20;99.90
18268;DHT22;9260;49.998;19.880;2023-07-31T22:23:43;12.10;99.90
18268;DHT22;9260;49.998;19.880;2023-07-31T22:33:46;12.20;99.90
18268;DHT22;9260;49.998;19.880;2023-07-31T22:43:51;12.20;99.90
18268;DHT22;9260;49.998;19.880;2023-07-31T22:53:54;12.20;99.90
18268;DHT22;9260;49.998;19.880;2023-07-31T23:03:59;12.20;99.90
18268;DHT22;9260;49.998;19.880;2023-07-31T23:14:02;13.10;99.90
18268;DHT22;9260;49.998;19.880;2023-07-31T23:24:07;12.10;99.90
18268;DHT22;9260;49.998;19.880;2023-07-31T23:34:11;11.80;99.90
18268;DHT22;9260;49.998;19.880;2023-07-31T23:44:16;11.60;99.90
18268;DHT22;9260;49.998;19.880;2023-07-31T23:54:19;11.50;99.90
